Time;durP1;ratioP1;P1;durP2;ratioP2;P2;SDS_P1;SDS_P2;PMS_P1;PMS_P2;Temp;Humidity;BMP_temperature;BMP_pressure;BME280_temperature;BME280_humidity;BME280_pressure;Samples;Min_cycle;Max_cycle;Signal;HPM_P1;HPM_P2
2022/04/11 00:01:24;;;;;;;1.38;1.38;;;7.20;88.00;;;;;;5075580;28;20068;-58
2022/04/11 00:03:50;;;;;;;1.48;1.38;;;7.20;87.70;;;;;;5075297;28;20029;-58
2022/04/11 00:06:16;;;;;;;1.80;1.70;;;7.20;87.80;;;;;;5074629;28;20024;-58
2022/04/11 00:08:42;;;;;;;1.73;1.63;;;7.20;87.90;;;;;;5075422;28;20020;-58
2022/04/11 00:11:08;;;;;;;1.80;1.70;;;7.20;88.30;;;;;;5075344;28;20541;-58
2022/04/11 00:13:34;;;;;;;1.50;1.50;;;7.20;88.30;;;;;;5075357;28;20056;-58
2022/04/11 00:15:59;;;;;;;1.50;1.50;;;7.20;88.40;;;;;;5075396;28;20029;-58
2022/04/11 00:18:25;;;;;;;1.48;1.27;;;7.20;88.10;;;;;;5075318;28;20085;-58
2022/04/11 00:20:51;;;;;;;1.40;1.40;;;7.10;87.80;;;;;;5075386;28;20412;-58
2022/04/11 00:23:17;;;;;;;1.42;1.40;;;7.10;87.50;;;;;;5072018;28;20036;-58
2022/04/11 00:25:42;;;;;;;1.40;1.40;;;7.00;87.50;;;;;;5074986;28;20029;-58
2022/04/11 00:28:08;;;;;;;1.30;1.30;;;7.00;87.70;;;;;;5075120;28;20091;-58
2022/04/11 00:30:34;;;;;;;1.40;1.30;;;7.00;88.00;;;;;;5075389;28;20024;-58
2022/04/11 00:33:00;;;;;;;1.40;1.30;;;6.90;88.30;;;;;;5074981;28;20024;-58
2022/04/11 00:35:25;;;;;;;1.48;1.42;;;6.90;88.60;;;;;;5074996;28;20028;-58
2022/04/11 00:37:51;;;;;;;1.45;1.35;;;6.90;88.50;;;;;;5074889;28;20037;-58
2022/04/11 00:40:17;;;;;;;1.45;1.30;;;6.90;88.60;;;;;;5065461;28;20079;-58
2022/04/11 00:42:43;;;;;;;1.15;1.15;;;6.90;88.60;;;;;;5074820;28;20019;-58
2022/04/11 00:45:08;;;;;;;1.27;1.27;;;6.90;88.80;;;;;;5074656;28;20031;-58
2022/04/11 00:47:34;;;;;;;1.60;1.50;;;6.90;88.80;;;;;;5074999;28;20020;-59
2022/04/11 00:50:06;;;;;;;1.35;1.33;;;6.90;88.70;;;;;;5074632;28;20028;-58
2022/04/11 00:52:35;;;;;;;1.20;1.20;;;6.90;88.40;;;;;;5069574;28;20047;-58
2022/04/11 00:55:02;;;;;;;1.20;1.20;;;6.90;88.50;;;;;;5062285;28;20087;-58
2022/04/11 00:57:28;;;;;;;1.35;1.30;;;6.80;88.30;;;;;;5063154;28;20472;-58
2022/04/11 00:59:54;;;;;;;1.20;1.20;;;6.80;88.30;;;;;;5074452;28;20031;-58
2022/04/11 01:02:20;;;;;;;1.20;1.20;;;6.80;88.50;;;;;;5074306;28;20103;-58
2022/04/11 01:04:46;;;;;;;1.02;1.02;;;6.80;88.60;;;;;;5074518;28;20100;-58
2022/04/11 01:07:11;;;;;;;1.27;1.27;;;6.80;88.40;;;;;;5074303;28;20081;-58
2022/04/11 01:09:37;;;;;;;1.25;1.25;;;6.80;88.50;;;;;;5074383;28;20055;-58
2022/04/11 01:12:03;;;;;;;1.20;1.20;;;6.80;88.70;;;;;;5072067;28;20052;-58
2022/04/11 01:14:29;;;;;;;1.35;1.35;;;6.80;88.50;;;;;;5063347;28;20036;-58
2022/04/11 01:16:57;;;;;;;1.55;1.45;;;6.80;88.20;;;;;;5074199;28;20472;-58
2022/04/11 01:19:23;;;;;;;1.40;1.40;;;6.90;88.30;;;;;;5074155;28;20033;-58
2022/04/11 01:21:49;;;;;;;1.50;1.50;;;6.80;88.10;;;;;;5073806;28;20392;-58
2022/04/11 01:24:19;;;;;;;1.48;1.48;;;6.80;87.90;;;;;;5068196;28;20021;-58
2022/04/11 01:26:46;;;;;;;1.40;1.40;;;6.80;87.90;;;;;;5071235;28;20025;-58
2022/04/11 01:29:13;;;;;;;1.50;1.40;;;6.80;88.20;;;;;;5060469;28;20032;-58
2022/04/11 01:31:38;;;;;;;1.40;1.40;;;6.80;88.50;;;;;;5069520;28;20475;-58
2022/04/11 01:34:04;;;;;;;1.63;1.55;;;6.80;88.30;;;;;;5073780;28;20017;-58
2022/04/11 01:36:30;;;;;;;1.52;1.42;;;6.80;88.20;;;;;;5073952;28;20029;-58
2022/04/11 01:38:55;;;;;;;1.40;1.40;;;6.80;87.80;;;;;;5073599;28;20100;-58
2022/04/11 01:41:21;;;;;;;1.10;1.10;;;6.80;87.90;;;;;;5073646;28;20391;-58
2022/04/11 01:43:46;;;;;;;1.33;1.33;;;6.70;87.80;;;;;;5073651;28;20020;-58
2022/04/11 01:46:13;;;;;;;1.58;1.55;;;6.70;87.80;;;;;;5073602;28;20025;-58
2022/04/11 01:48:38;;;;;;;1.48;1.48;;;6.70;87.80;;;;;;5069481;28;20461;-58
2022/04/11 01:51:05;;;;;;;1.40;1.40;;;6.70;88.00;;;;;;5066074;28;20036;-58
2022/04/11 01:53:31;;;;;;;1.52;1.52;;;6.70;87.80;;;;;;5073453;28;20093;-58
2022/04/11 01:55:56;;;;;;;1.38;1.38;;;6.80;88.60;;;;;;5073477;28;20020;-58
2022/04/11 01:58:22;;;;;;;1.80;1.70;;;6.80;88.10;;;;;;5062295;28;20032;-58
2022/04/11 02:00:48;;;;;;;1.50;1.42;;;6.80;88.20;;;;;;5073187;28;20086;-58
2022/04/11 02:03:13;;;;;;;1.48;1.40;;;6.80;88.20;;;;;;5073087;28;20021;-57
2022/04/11 02:05:40;;;;;;;1.58;1.48;;;6.70;88.10;;;;;;5060435;28;20099;-58
2022/04/11 02:08:07;;;;;;;1.42;1.42;;;6.80;87.90;;;;;;5073089;28;20468;-58
2022/04/11 02:10:35;;;;;;;1.45;1.45;;;6.70;87.80;;;;;;5073126;28;20030;-58
2022/04/11 02:13:01;;;;;;;1.70;1.63;;;6.80;87.90;;;;;;5073165;28;20064;-58
2022/04/11 02:15:26;;;;;;;1.40;1.40;;;6.80;87.90;;;;;;5073305;28;20483;-57
2022/04/11 02:17:52;;;;;;;1.60;1.50;;;6.80;87.80;;;;;;5072393;28;20024;-58
2022/04/11 02:20:18;;;;;;;1.40;1.30;;;6.70;87.70;;;;;;5061671;28;20037;-58
2022/04/11 02:22:52;;;;;;;1.38;1.38;;;6.80;87.80;;;;;;5059497;28;20024;-58
2022/04/11 02:25:21;;;;;;;1.35;1.27;;;6.80;87.70;;;;;;5072863;28;20025;-58
2022/04/11 02:27:48;;;;;;;1.30;1.30;;;6.70;87.70;;;;;;5072562;28;20025;-58
2022/04/11 02:30:15;;;;;;;1.90;1.80;;;6.70;87.80;;;;;;5073054;28;20111;-58
2022/04/11 02:32:41;;;;;;;1.73;1.63;;;6.70;87.80;;;;;;5072884;28;20388;-58
2022/04/11 02:35:07;;;;;;;1.38;1.38;;;6.80;87.80;;;;;;5072779;28;20025;-58
2022/04/11 02:37:33;;;;;;;1.58;1.48;;;6.80;87.80;;;;;;5070691;28;20045;-58
2022/04/11 02:40:00;;;;;;;1.30;1.30;;;6.80;87.90;;;;;;5066159;28;20392;-58
2022/04/11 02:42:27;;;;;;;1.42;1.42;;;6.70;87.70;;;;;;5072540;28;20030;-58
2022/04/11 02:44:53;;;;;;;1.50;1.40;;;6.70;87.80;;;;;;5071405;28;20059;-57
2022/04/11 02:47:20;;;;;;;1.38;1.33;;;6.70;87.80;;;;;;5071227;28;20485;-58
2022/04/11 02:49:46;;;;;;;1.20;1.20;;;6.70;87.60;;;;;;5072844;28;20499;-58
2022/04/11 02:52:12;;;;;;;1.20;1.20;;;6.70;87.80;;;;;;5072289;28;20020;-58
2022/04/11 02:54:38;;;;;;;1.10;1.10;;;6.70;87.60;;;;;;5072450;28;20411;-59
2022/04/11 02:57:05;;;;;;;1.23;1.23;;;6.70;88.00;;;;;;5070141;28;20472;-58
2022/04/11 02:59:32;;;;;;;1.60;1.50;;;6.70;88.30;;;;;;5058243;28;20082;-58
2022/04/11 03:01:58;;;;;;;1.10;1.10;;;6.70;88.30;;;;;;5072270;28;20027;-58
2022/04/11 03:04:23;;;;;;;1.40;1.30;;;6.70;88.10;;;;;;5056150;28;20029;-58
2022/04/11 03:06:49;;;;;;;1.38;1.38;;;6.60;88.40;;;;;;5072776;28;20051;-58
2022/04/11 03:09:15;;;;;;;1.30;1.30;;;6.70;88.80;;;;;;5072688;28;20028;-58
2022/04/11 03:11:40;;;;;;;1.52;1.42;;;6.70;89.20;;;;;;5072219;28;20023;-58
2022/04/11 03:14:06;;;;;;;2.05;1.85;;;6.70;88.30;;;;;;5066345;28;20078;-58
2022/04/11 03:16:32;;;;;;;1.40;1.30;;;6.70;88.10;;;;;;5072256;28;20079;-58
2022/04/11 03:18:58;;;;;;;1.35;1.35;;;6.70;88.30;;;;;;5072714;28;20369;-57
2022/04/11 03:21:23;;;;;;;1.42;1.38;;;6.70;88.50;;;;;;5076309;28;20028;-59
2022/04/11 03:23:49;;;;;;;1.10;1.10;;;6.70;88.40;;;;;;5076369;28;20066;-58
2022/04/11 03:26:15;;;;;;;1.30;1.30;;;6.70;88.10;;;;;;5076347;28;20387;-58
2022/04/11 03:28:40;;;;;;;1.60;1.50;;;6.70;88.00;;;;;;5075532;28;20499;-58
2022/04/11 03:31:06;;;;;;;1.30;1.30;;;6.70;88.20;;;;;;5064572;28;20028;-58
2022/04/11 03:33:32;;;;;;;1.23;1.23;;;6.70;88.30;;;;;;5075895;28;20036;-58
2022/04/11 03:35:57;;;;;;;1.52;1.52;;;6.70;88.10;;;;;;5076326;28;20113;-58
2022/04/11 03:38:23;;;;;;;1.67;1.58;;;6.70;88.10;;;;;;5075964;28;20049;-59
2022/04/11 03:40:49;;;;;;;1.50;1.50;;;6.70;87.80;;;;;;5074287;28;20029;-58
2022/04/11 03:43:15;;;;;;;1.45;1.35;;;6.70;87.90;;;;;;5076285;28;20028;-58
2022/04/11 03:45:41;;;;;;;1.73;1.63;;;6.70;87.60;;;;;;5075958;28;20021;-59
2022/04/11 03:48:07;;;;;;;1.42;1.40;;;6.70;87.40;;;;;;5068421;28;20027;-58
2022/04/11 03:50:32;;;;;;;1.35;1.35;;;6.70;87.10;;;;;;5075913;28;20025;-58
2022/04/11 03:52:58;;;;;;;1.50;1.50;;;6.70;87.20;;;;;;5076067;28;20024;-58
2022/04/11 03:55:24;;;;;;;1.70;1.60;;;6.70;87.30;;;;;;5076027;28;20024;-59
2022/04/11 03:57:50;;;;;;;1.63;1.52;;;6.70;87.30;;;;;;5072690;28;20097;-59
2022/04/11 04:00:16;;;;;;;2.53;1.90;;;6.70;87.50;;;;;;5075882;28;20051;-59
2022/04/11 04:02:43;;;;;;;1.77;1.67;;;6.80;87.30;;;;;;5076010;28;20016;-58
2022/04/11 04:05:09;;;;;;;2.08;1.90;;;6.80;87.00;;;;;;5073080;28;20032;-58
2022/04/11 04:07:36;;;;;;;1.88;1.77;;;6.70;86.90;;;;;;5067942;28;20085;-58
2022/04/11 04:10:03;;;;;;;1.70;1.60;;;6.80;87.10;;;;;;5071186;28;20021;-59
2022/04/11 04:12:29;;;;;;;1.40;1.40;;;6.80;86.80;;;;;;5075676;28;20032;-57
2022/04/11 04:14:55;;;;;;;1.25;1.25;;;6.80;86.90;;;;;;5075717;28;20042;-58
2022/04/11 04:17:20;;;;;;;1.48;1.48;;;6.80;86.80;;;;;;5075976;28;20028;-58
2022/04/11 04:19:46;;;;;;;1.42;1.40;;;6.80;86.70;;;;;;5075666;28;20033;-59
2022/04/11 04:22:12;;;;;;;1.40;1.40;;;6.90;87.60;;;;;;5063035;28;20056;-58
2022/04/11 04:24:37;;;;;;;1.80;1.67;;;6.90;86.90;;;;;;5075495;28;20037;-58
2022/04/11 04:27:04;;;;;;;1.38;1.38;;;6.90;86.70;;;;;;5075175;28;20036;-59
2022/04/11 04:29:30;;;;;;;1.45;1.45;;;7.00;86.60;;;;;;5074680;28;20024;-59
2022/04/11 04:31:56;;;;;;;1.40;1.40;;;7.00;86.40;;;;;;5075306;28;20032;-58
2022/04/11 04:34:21;;;;;;;1.70;1.60;;;7.00;86.20;;;;;;5075507;28;20029;-58
2022/04/11 04:36:47;;;;;;;1.60;1.50;;;7.00;86.00;;;;;;5070579;28;20518;-58
2022/04/11 04:39:14;;;;;;;1.80;1.70;;;7.00;86.10;;;;;;5066942;28;20062;-59
2022/04/11 04:41:39;;;;;;;1.55;1.45;;;7.00;86.30;;;;;;5071894;28;20024;-59
2022/04/11 04:44:08;;;;;;;1.35;1.33;;;7.10;86.20;;;;;;5075156;28;20031;-59
2022/04/11 04:46:35;;;;;;;1.50;1.50;;;7.10;86.10;;;;;;5074464;28;20025;-59
2022/04/11 04:49:01;;;;;;;1.13;1.13;;;7.10;86.00;;;;;;5074953;28;20025;-58
2022/04/11 04:51:27;;;;;;;1.42;1.33;;;7.10;85.90;;;;;;5074644;28;20021;-59
2022/04/11 04:53:53;;;;;;;1.35;1.25;;;7.10;85.80;;;;;;5066156;28;20031;-59
2022/04/11 04:56:18;;;;;;;1.67;1.58;;;7.20;85.90;;;;;;5055510;28;20036;-58
2022/04/11 04:58:47;;;;;;;1.60;1.50;;;7.20;85.80;;;;;;5058497;28;20418;-58
2022/04/11 05:01:13;;;;;;;1.40;1.40;;;7.20;85.80;;;;;;5060376;28;20099;-59
2022/04/11 05:03:39;;;;;;;1.48;1.40;;;7.20;85.60;;;;;;5060545;28;20039;-58
2022/04/11 05:06:05;;;;;;;1.58;1.48;;;7.30;85.40;;;;;;5057073;28;20031;-59
2022/04/11 05:08:32;;;;;;;1.50;1.40;;;7.30;85.40;;;;;;5061572;28;20464;-58
2022/04/11 05:10:58;;;;;;;1.40;1.40;;;7.40;85.20;;;;;;5061207;28;20173;-59
2022/04/11 05:13:24;;;;;;;1.48;1.38;;;7.40;85.40;;;;;;5061438;28;20190;-58
2022/04/11 05:15:49;;;;;;;1.20;1.20;;;7.40;85.20;;;;;;5063211;28;20140;-59
2022/04/11 05:18:15;;;;;;;1.20;1.20;;;7.50;85.10;;;;;;5081118;28;20392;-59
2022/04/11 05:20:41;;;;;;;1.25;1.25;;;7.50;85.10;;;;;;5069185;28;20040;-58
2022/04/11 05:23:07;;;;;;;1.38;1.38;;;7.60;84.90;;;;;;5072306;28;20103;-58
2022/04/11 05:25:33;;;;;;;1.42;1.33;;;7.60;84.40;;;;;;5071013;28;20060;-59
2022/04/11 05:27:58;;;;;;;1.58;1.48;;;7.60;84.10;;;;;;5064125;28;20052;-59
2022/04/11 05:30:24;;;;;;;1.30;1.20;;;7.70;84.00;;;;;;5067796;28;20707;-59
2022/04/11 05:32:50;;;;;;;1.20;1.20;;;7.70;84.00;;;;;;5064032;28;20024;-59
2022/04/11 05:35:16;;;;;;;1.13;1.13;;;7.70;83.90;;;;;;5071070;28;20025;-58
2022/04/11 05:37:42;;;;;;;1.17;1.17;;;7.70;83.60;;;;;;5071119;28;20447;-59
2022/04/11 05:40:11;;;;;;;1.08;1.08;;;7.70;83.90;;;;;;5071794;28;20060;-59
2022/04/11 05:42:37;;;;;;;1.30;1.30;;;7.70;83.40;;;;;;5062590;28;20045;-59
2022/04/11 05:45:13;;;;;;;1.20;1.20;;;7.70;83.50;;;;;;5066563;28;20068;-58
2022/04/11 05:47:38;;;;;;;1.25;1.25;;;7.80;83.70;;;;;;5063763;28;20033;-58
2022/04/11 05:50:04;;;;;;;1.00;1.00;;;7.70;82.90;;;;;;5059046;28;20025;-59
2022/04/11 05:52:30;;;;;;;1.33;1.33;;;7.70;82.80;;;;;;5061790;28;20442;-58
2022/04/11 05:54:55;;;;;;;1.38;1.27;;;7.70;82.90;;;;;;5069904;28;20104;-59
2022/04/11 05:57:21;;;;;;;1.30;1.30;;;7.70;82.90;;;;;;5063961;28;20095;-59
2022/04/11 05:59:47;;;;;;;1.52;1.42;;;7.80;83.00;;;;;;5063385;28;20070;-58
2022/04/11 06:02:12;;;;;;;1.55;1.45;;;7.80;83.20;;;;;;5060457;28;20033;-59
2022/04/11 06:04:38;;;;;;;1.50;1.48;;;7.80;83.10;;;;;;5058402;28;20025;-58
2022/04/11 06:07:06;;;;;;;1.55;1.45;;;7.80;83.20;;;;;;5057288;28;20475;-59
2022/04/11 06:09:35;;;;;;;1.23;1.23;;;7.90;83.10;;;;;;5066854;28;20107;-61
2022/04/11 06:12:01;;;;;;;1.52;1.42;;;7.90;82.70;;;;;;5054051;28;20033;-58
2022/04/11 06:14:26;;;;;;;1.30;1.30;;;7.90;83.10;;;;;;5048769;28;20106;-57
2022/04/11 06:16:54;;;;;;;1.20;1.20;;;8.00;82.60;;;;;;5051891;28;20032;-58
2022/04/11 06:19:20;;;;;;;1.50;1.50;;;8.10;82.60;;;;;;5060080;28;20356;-58
2022/04/11 06:21:45;;;;;;;1.45;1.45;;;8.10;82.10;;;;;;5055079;28;20100;-59
2022/04/11 06:24:11;;;;;;;1.30;1.20;;;8.10;81.80;;;;;;5061116;28;20024;-61
2022/04/11 06:26:38;;;;;;;1.20;1.20;;;8.20;82.20;;;;;;5067384;28;20082;-61
2022/04/11 06:29:04;;;;;;;1.30;1.20;;;8.20;82.10;;;;;;5063557;28;20033;-61
2022/04/11 06:31:32;;;;;;;1.52;1.42;;;8.20;81.80;;;;;;5060123;28;20025;-60
2022/04/11 06:33:58;;;;;;;1.20;1.20;;;8.20;81.80;;;;;;5059922;28;20032;-58
2022/04/11 06:36:23;;;;;;;1.42;1.40;;;8.30;81.70;;;;;;5053478;28;20032;-60
2022/04/11 06:38:49;;;;;;;1.60;1.50;;;8.30;81.60;;;;;;5054303;28;20091;-58
2022/04/11 06:41:14;;;;;;;1.17;1.17;;;8.40;81.50;;;;;;5057223;28;20107;-58
2022/04/11 06:43:40;;;;;;;1.40;1.30;;;8.40;81.60;;;;;;5053321;28;20033;-58
2022/04/11 06:46:06;;;;;;;1.30;1.30;;;8.40;81.30;;;;;;5052519;28;20031;-58
2022/04/11 06:48:31;;;;;;;1.20;1.20;;;8.50;81.20;;;;;;5053208;28;20028;-58
2022/04/11 06:50:57;;;;;;;1.20;1.20;;;8.50;81.10;;;;;;5054011;28;20086;-58
2022/04/11 06:53:22;;;;;;;1.38;1.27;;;8.60;81.30;;;;;;5054227;28;20028;-58
2022/04/11 06:55:48;;;;;;;1.30;1.30;;;8.70;80.60;;;;;;5057898;28;20119;-58
2022/04/11 06:58:16;;;;;;;1.20;1.17;;;8.70;81.40;;;;;;5058029;28;20326;-58
2022/04/11 07:00:42;;;;;;;1.10;1.10;;;8.80;80.60;;;;;;5059423;28;20032;-59
2022/04/11 07:03:08;;;;;;;1.15;1.15;;;8.90;79.90;;;;;;5061232;28;20028;-59
2022/04/11 07:05:34;;;;;;;1.02;1.02;;;8.90;79.70;;;;;;5054825;28;20107;-60
2022/04/11 07:08:00;;;;;;;1.33;1.30;;;8.90;79.50;;;;;;5057526;28;20024;-58
2022/04/11 07:10:25;;;;;;;1.30;1.30;;;8.90;79.30;;;;;;5055683;28;20491;-58
2022/04/11 07:12:51;;;;;;;1.20;1.20;;;9.00;79.10;;;;;;5056884;28;20028;-59
2022/04/11 07:15:17;;;;;;;1.65;1.40;;;9.00;79.10;;;;;;5051339;28;20119;-59
2022/04/11 07:17:42;;;;;;;1.40;1.40;;;9.00;79.40;;;;;;5060213;28;20566;-59
2022/04/11 07:20:09;;;;;;;1.50;1.40;;;9.00;79.30;;;;;;5052644;28;20059;-59
2022/04/11 07:22:34;;;;;;;1.50;1.40;;;9.10;79.20;;;;;;5052881;28;20028;-59
2022/04/11 07:25:03;;;;;;;1.10;1.10;;;9.10;78.70;;;;;;5051432;28;20032;-59
2022/04/11 07:27:29;;;;;;;1.33;1.30;;;9.10;78.30;;;;;;5051562;28;20024;-60
2022/04/11 07:29:54;;;;;;;1.35;1.25;;;9.10;78.50;;;;;;5049758;28;20048;-59
2022/04/11 07:32:20;;;;;;;1.27;1.27;;;9.10;78.70;;;;;;5054632;28;20041;-59
2022/04/11 07:34:46;;;;;;;1.30;1.30;;;9.20;78.50;;;;;;5052837;28;20036;-59
2022/04/11 07:37:12;;;;;;;1.40;1.40;;;9.20;78.00;;;;;;5046570;28;20500;-60
2022/04/11 07:39:38;;;;;;;1.60;1.50;;;9.30;77.90;;;;;;5055327;28;20103;-60
2022/04/11 07:42:04;;;;;;;1.10;1.10;;;9.30;77.50;;;;;;5051053;28;20518;-60
2022/04/11 07:44:29;;;;;;;1.42;1.35;;;9.30;77.40;;;;;;5046912;28;20044;-61
2022/04/11 07:46:55;;;;;;;1.40;1.40;;;9.30;77.30;;;;;;5051377;28;20495;-61
2022/04/11 07:49:21;;;;;;;1.23;1.23;;;9.40;77.20;;;;;;5045588;28;20021;-60
2022/04/11 07:51:46;;;;;;;1.23;1.23;;;9.40;76.60;;;;;;5051613;28;20425;-61
2022/04/11 07:54:12;;;;;;;1.20;1.20;;;9.40;75.90;;;;;;5056634;28;20467;-61
2022/04/11 07:56:38;;;;;;;1.38;1.27;;;9.40;75.80;;;;;;5053905;28;20830;-60
2022/04/11 07:59:03;;;;;;;1.60;1.50;;;9.50;75.90;;;;;;5052654;28;20040;-59
2022/04/11 08:01:29;;;;;;;1.40;1.40;;;9.50;75.80;;;;;;5054650;28;20028;-60
2022/04/11 08:03:55;;;;;;;1.25;1.15;;;9.60;75.50;;;;;;5051195;28;20492;-60
2022/04/11 08:06:21;;;;;;;1.63;1.52;;;9.60;75.50;;;;;;5053235;28;20509;-60
2022/04/11 08:08:47;;;;;;;1.48;1.42;;;9.50;75.40;;;;;;5061106;28;20031;-60
2022/04/11 08:11:17;;;;;;;1.25;1.25;;;9.50;75.30;;;;;;5058470;28;20024;-59
2022/04/11 08:13:43;;;;;;;1.25;1.23;;;9.50;75.30;;;;;;5059304;28;20044;-60
2022/04/11 08:16:10;;;;;;;1.50;1.38;;;9.60;75.00;;;;;;5056578;28;20025;-60
2022/04/11 08:18:35;;;;;;;1.33;1.23;;;9.60;74.70;;;;;;5051897;28;20028;-60
2022/04/11 08:21:02;;;;;;;1.25;1.25;;;9.60;74.70;;;;;;5051314;28;20060;-61
2022/04/11 08:23:28;;;;;;;1.10;1.10;;;9.70;74.50;;;;;;5054436;28;20506;-60
2022/04/11 08:25:54;;;;;;;1.50;1.20;;;9.80;74.40;;;;;;5053518;28;20033;-61
2022/04/11 08:28:20;;;;;;;1.40;1.33;;;9.90;74.30;;;;;;5059613;28;20421;-60
2022/04/11 08:30:46;;;;;;;1.50;1.40;;;9.90;73.90;;;;;;5052476;28;20551;-59
2022/04/11 08:33:11;;;;;;;1.42;1.33;;;9.90;73.90;;;;;;5056468;28;20094;-58
2022/04/11 08:35:43;;;;;;;1.10;1.10;;;9.90;73.90;;;;;;5055082;28;20385;-61
2022/04/11 08:38:09;;;;;;;1.40;1.30;;;9.90;74.00;;;;;;5051748;28;20044;-58
2022/04/11 08:40:35;;;;;;;1.35;1.25;;;9.90;74.10;;;;;;5053874;28;20074;-59
2022/04/11 08:43:02;;;;;;;1.30;1.20;;;9.90;74.00;;;;;;5060875;28;20055;-59
2022/04/11 08:45:29;;;;;;;1.10;1.10;;;9.90;73.60;;;;;;5051510;28;20041;-62
2022/04/11 08:47:56;;;;;;;0.95;0.93;;;10.00;73.10;;;;;;5052589;28;20293;-60
2022/04/11 08:50:24;;;;;;;1.33;1.25;;;10.00;73.10;;;;;;5058560;28;20063;-62
2022/04/11 08:52:50;;;;;;;1.20;1.10;;;10.00;73.40;;;;;;5057815;28;20090;-59
2022/04/11 08:55:17;;;;;;;1.17;1.17;;;10.00;73.40;;;;;;5052527;28;20159;-60
2022/04/11 08:57:42;;;;;;;1.50;1.40;;;9.90;73.30;;;;;;5054835;28;20655;-59
2022/04/11 09:00:13;;;;;;;1.23;1.20;;;9.90;73.10;;;;;;5055238;28;20037;-59
2022/04/11 09:02:41;;;;;;;1.10;1.10;;;9.80;73.20;;;;;;5048987;28;20028;-59
2022/04/11 09:05:08;;;;;;;1.20;1.20;;;9.80;73.30;;;;;;5055014;28;20025;-59
2022/04/11 09:07:51;;;;;;;1.10;1.10;;;9.80;73.40;;;;;;5057110;28;20112;-62
2022/04/11 09:10:19;;;;;;;1.13;1.13;;;9.80;73.30;;;;;;5047543;28;20053;-60
2022/04/11 09:12:52;;;;;;;1.27;1.27;;;9.80;73.40;;;;;;5056575;28;20040;-58
2022/04/11 09:15:19;;;;;;;1.20;1.10;;;9.80;73.00;;;;;;5057184;28;20067;-60
2022/04/11 09:17:46;;;;;;;1.08;1.08;;;9.80;73.10;;;;;;5053463;28;20021;-60
2022/04/11 09:20:14;;;;;;;1.27;1.27;;;9.80;73.30;;;;;;5055928;28;20109;-59
2022/04/11 09:22:40;;;;;;;1.33;1.33;;;9.90;74.20;;;;;;5058090;28;20100;-60
2022/04/11 09:25:15;;;;;;;2.10;1.63;;;9.90;74.70;;;;;;5056751;28;20039;-59
2022/04/11 09:27:42;;;;;;;1.58;1.48;;;10.00;74.60;;;;;;5050906;28;20715;-59
2022/04/11 09:30:27;;;;;;;1.67;1.58;;;10.10;74.60;;;;;;5050317;28;20066;-60
2022/04/11 09:33:05;;;;;;;2.85;2.33;;;10.20;74.20;;;;;;5060019;28;20435;-59
2022/04/11 09:35:43;;;;;;;1.98;1.50;;;10.10;73.90;;;;;;5057487;28;20024;-60
2022/04/11 09:38:20;;;;;;;1.55;1.45;;;10.10;73.90;;;;;;5055132;28;20048;-58
2022/04/11 09:40:52;;;;;;;1.67;1.58;;;10.10;74.00;;;;;;5053584;28;20510;-59
2022/04/11 09:43:24;;;;;;;1.80;1.70;;;10.00;74.20;;;;;;5060245;28;20455;-59
2022/04/11 09:45:54;;;;;;;1.40;1.30;;;10.00;74.10;;;;;;5052251;28;20567;-59
2022/04/11 09:48:21;;;;;;;1.70;1.60;;;9.90;74.00;;;;;;5052598;28;20438;-60
2022/04/11 09:50:49;;;;;;;1.55;1.48;;;9.90;74.00;;;;;;5053175;28;20181;-59
2022/04/11 09:53:29;;;;;;;1.48;1.30;;;9.90;74.10;;;;;;5053057;28;20102;-60
2022/04/11 09:55:55;;;;;;;2.00;1.80;;;9.90;74.20;;;;;;5050579;28;20059;-59
2022/04/11 09:58:23;;;;;;;1.27;1.27;;;9.90;74.10;;;;;;5058547;28;20032;-62
2022/04/11 10:00:50;;;;;;;1.33;1.33;;;9.90;73.80;;;;;;5053615;28;20044;-59
2022/04/11 10:03:16;;;;;;;1.40;1.35;;;9.80;73.50;;;;;;5051498;28;20150;-59
2022/04/11 10:05:42;;;;;;;1.20;1.20;;;9.80;73.50;;;;;;5056754;28;20421;-59
2022/04/11 10:08:10;;;;;;;1.70;1.60;;;9.80;73.40;;;;;;5056490;28;20029;-59
2022/04/11 10:10:39;;;;;;;1.60;1.50;;;9.80;73.60;;;;;;5061744;28;20031;-59
2022/04/11 10:13:17;;;;;;;1.85;1.42;;;9.80;73.70;;;;;;5053106;28;20037;-59
2022/04/11 10:15:51;;;;;;;1.52;1.42;;;9.80;74.00;;;;;;5054197;28;20119;-60
2022/04/11 10:18:21;;;;;;;1.55;1.50;;;9.80;74.20;;;;;;5052167;28;20042;-60
2022/04/11 10:20:52;;;;;;;1.33;1.30;;;9.90;74.10;;;;;;5053552;28;20025;-59
2022/04/11 10:23:56;;;;;;;1.63;1.52;;;10.10;74.00;;;;;;5050819;28;20518;-60
2022/04/11 10:26:25;;;;;;;1.30;1.27;;;10.10;73.20;;;;;;5053072;28;20484;-59
2022/04/11 10:28:51;;;;;;;1.10;1.10;;;10.20;72.90;;;;;;5055408;28;20017;-59
2022/04/11 10:31:17;;;;;;;1.40;1.30;;;10.30;72.20;;;;;;5054296;28;20040;-59
2022/04/11 10:33:55;;;;;;;1.20;1.20;;;10.40;71.70;;;;;;5055091;28;20056;-61
2022/04/11 10:36:36;;;;;;;1.50;1.40;;;10.40;71.50;;;;;;5050690;28;20029;-61
2022/04/11 10:39:14;;;;;;;1.52;1.42;;;10.40;71.40;;;;;;5051239;28;20052;-59
2022/04/11 10:42:12;;;;;;;1.13;1.13;;;10.50;71.60;;;;;;5050815;28;20021;-59
2022/04/11 10:44:59;;;;;;;1.23;1.23;;;10.40;70.80;;;;;;5054917;28;20035;-62
2022/04/11 10:47:34;;;;;;;1.50;1.40;;;10.40;70.90;;;;;;5057504;28;20448;-61
2022/04/11 10:50:01;;;;;;;1.67;1.58;;;10.40;71.00;;;;;;5058415;28;20039;-60
2022/04/11 10:52:40;;;;;;;1.25;1.23;;;10.40;70.60;;;;;;5055473;28;20491;-62
2022/04/11 10:55:10;;;;;;;1.30;1.30;;;10.40;70.30;;;;;;5053758;28;20031;-60
2022/04/11 10:57:40;;;;;;;1.38;1.27;;;10.40;70.40;;;;;;5049976;28;20029;-60
2022/04/11 11:00:12;;;;;;;1.35;1.25;;;10.40;70.70;;;;;;5052967;28;20047;-59
2022/04/11 11:02:57;;;;;;;1.10;1.10;;;10.30;70.80;;;;;;5056543;28;20081;-60
2022/04/11 11:05:36;;;;;;;1.50;1.50;;;10.30;71.20;;;;;;5053678;28;20029;-59
2022/04/11 11:08:21;;;;;;;1.25;1.25;;;10.30;71.50;;;;;;5045373;28;20032;-60
2022/04/11 11:10:55;;;;;;;1.42;1.38;;;10.40;71.80;;;;;;5051705;28;20093;-59
2022/04/11 11:13:41;;;;;;;1.80;1.70;;;10.40;71.00;;;;;;5043614;28;20475;-59
2022/04/11 11:16:07;;;;;;;1.52;1.45;;;10.40;70.60;;;;;;5040020;28;20040;-59
2022/04/11 11:21:15;;;;;;;1.35;1.30;;;10.30;70.80;;;;;;5042910;28;20573;-59
2022/04/11 11:24:04;;;;;;;1.23;1.23;;;10.30;70.70;;;;;;5049467;28;20016;-60
2022/04/11 11:26:58;;;;;;;2.00;1.38;;;10.30;70.30;;;;;;5050264;28;20044;-58
2022/04/11 11:29:26;;;;;;;1.40;1.30;;;10.40;70.30;;;;;;5047770;28;20596;-60
2022/04/11 11:32:15;;;;;;;1.90;1.45;;;10.50;70.40;;;;;;5049448;28;20036;-59
2022/04/11 11:34:42;;;;;;;1.23;1.23;;;10.60;70.00;;;;;;5045062;28;20051;-60
2022/04/11 11:37:11;;;;;;;1.60;1.50;;;10.60;70.00;;;;;;5048271;28;20049;-59
2022/04/11 11:39:45;;;;;;;1.63;1.52;;;10.70;69.70;;;;;;5044959;28;20064;-59
2022/04/11 11:42:18;;;;;;;1.15;1.15;;;10.70;69.50;;;;;;5058126;28;20490;-60
2022/04/11 11:45:02;;;;;;;1.70;1.60;;;10.70;69.40;;;;;;5055234;28;20108;-59
2022/04/11 11:47:28;;;;;;;1.35;1.30;;;10.60;69.40;;;;;;5052890;28;20033;-62
2022/04/11 11:50:11;;;;;;;1.10;1.10;;;10.60;69.90;;;;;;5059368;28;20041;-59
2022/04/11 11:52:39;;;;;;;1.33;1.30;;;10.60;69.10;;;;;;5053928;28;20079;-62
2022/04/11 11:55:05;;;;;;;1.30;1.23;;;10.60;69.00;;;;;;5056762;28;20059;-62
2022/04/11 11:57:31;;;;;;;1.23;1.13;;;10.60;68.50;;;;;;5056822;28;20028;-60
2022/04/11 11:59:59;;;;;;;1.23;1.23;;;10.60;68.60;;;;;;5053935;28;20033;-62
2022/04/11 12:05:25;;;;;;;1.50;1.40;;;10.60;69.10;;;;;;5061310;28;20026;-59
2022/04/11 12:08:03;;;;;;;1.30;1.20;;;10.60;69.50;;;;;;5051317;28;20039;-61
2022/04/11 12:10:29;;;;;;;1.65;1.55;;;10.60;69.70;;;;;;5052000;28;20031;-58
2022/04/11 12:12:55;;;;;;;1.40;1.30;;;10.60;69.60;;;;;;5056415;28;20028;-59
2022/04/11 12:15:22;;;;;;;1.10;1.10;;;10.60;69.50;;;;;;5056979;28;20047;-61
2022/04/11 12:17:49;;;;;;;1.30;1.30;;;10.70;69.60;;;;;;5056705;28;20563;-59
2022/04/11 12:20:22;;;;;;;1.60;1.50;;;10.70;69.30;;;;;;5037585;28;20747;-62
2022/04/11 12:23:06;;;;;;;1.30;1.20;;;10.70;68.80;;;;;;5057085;28;20060;-60
2022/04/11 12:25:33;;;;;;;1.65;1.55;;;10.70;68.40;;;;;;5056146;28;20025;-60
2022/04/11 12:28:15;;;;;;;1.90;1.60;;;10.80;68.50;;;;;;5054348;28;20791;-60
2022/04/11 12:30:45;;;;;;;1.65;1.55;;;10.70;67.80;;;;;;5048685;28;20082;-59
2022/04/11 12:33:33;;;;;;;1.38;1.38;;;10.70;68.00;;;;;;5053362;28;20029;-59
2022/04/11 12:36:10;;;;;;;1.42;1.33;;;10.70;68.10;;;;;;5046354;28;20720;-60
2022/04/11 12:38:45;;;;;;;1.58;1.50;;;10.70;68.20;;;;;;5048457;28;20060;-60
2022/04/11 12:41:39;;;;;;;2.08;1.58;;;10.70;68.40;;;;;;5053539;28;20364;-59
2022/04/11 12:44:09;;;;;;;3.03;1.60;;;10.80;68.10;;;;;;5048536;28;20170;-59
2022/04/11 12:46:42;;;;;;;1.60;1.50;;;10.80;68.30;;;;;;5056798;28;20671;-59
2022/04/11 12:49:09;;;;;;;1.17;1.17;;;10.70;67.70;;;;;;5051473;28;20020;-59
2022/04/11 12:51:36;;;;;;;1.75;1.20;;;10.70;67.80;;;;;;5051815;28;20496;-60
2022/04/11 12:54:12;;;;;;;1.13;1.02;;;10.80;68.00;;;;;;5056239;28;20036;-60
2022/04/11 12:56:41;;;;;;;1.50;1.40;;;10.90;67.50;;;;;;5052611;28;20075;-60
2022/04/11 12:59:07;;;;;;;2.10;1.10;;;10.90;67.10;;;;;;5052652;28;20066;-59
2022/04/11 13:01:56;;;;;;;1.38;1.27;;;10.90;67.30;;;;;;5048373;28;20083;-59
2022/04/11 13:04:21;;;;;;;2.08;1.20;;;10.90;67.40;;;;;;5053551;28;20021;-59
2022/04/11 13:06:49;;;;;;;1.48;1.38;;;10.90;67.20;;;;;;5056376;28;20020;-59